createdAt,value
2022-09-02T00:01:07.205Z,0.60
2022-09-02T00:04:14.213Z,0.35
2022-09-02T00:07:19.147Z,0.47
2022-09-02T00:10:24.226Z,0.40
2022-09-02T00:13:32.680Z,0.52
2022-09-02T00:19:42.835Z,0.40
2022-09-02T00:22:47.965Z,0.45
2022-09-02T00:25:52.989Z,0.30
2022-09-02T00:29:00.856Z,0.30
2022-09-02T00:32:06.324Z,0.43
2022-09-02T00:35:11.870Z,0.30
2022-09-02T00:38:17.036Z,0.40
2022-09-02T00:41:23.899Z,0.40
2022-09-02T00:44:31.750Z,0.32
2022-09-02T00:47:37.089Z,0.33
2022-09-02T00:50:42.964Z,0.20
2022-09-02T00:53:49.280Z,0.40
2022-09-02T00:56:55.875Z,0.22
2022-09-02T01:00:05.968Z,0.30
2022-09-02T01:03:12.119Z,0.30
2022-09-02T01:06:17.897Z,0.20
2022-09-02T01:09:23.487Z,0.20
2022-09-02T01:12:30.032Z,0.20
2022-09-02T01:15:39.457Z,0.30
2022-09-02T01:18:46.950Z,0.30
2022-09-02T01:21:56.225Z,0.50
2022-09-02T01:25:04.919Z,0.30
2022-09-02T01:31:15.289Z,0.30
2022-09-02T01:34:21.084Z,0.30
2022-09-02T01:37:29.357Z,0.25
2022-09-02T01:43:39.679Z,0.30
2022-09-02T01:46:45.035Z,0.40
2022-09-02T01:49:51.125Z,0.25
2022-09-02T01:52:58.923Z,0.20
2022-09-02T01:56:04.216Z,0.30
2022-09-02T01:59:18.172Z,0.30
2022-09-02T02:02:23.950Z,0.30
2022-09-02T02:05:31.078Z,0.20
2022-09-02T02:08:39.540Z,0.28
2022-09-02T02:11:45.231Z,0.20
2022-09-02T02:14:53.549Z,0.30
2022-09-02T02:18:00.310Z,0.30
2022-09-02T02:21:05.525Z,0.32
2022-09-02T02:24:13.327Z,0.20
2022-09-02T02:27:21.672Z,0.30
2022-09-02T02:30:27.016Z,0.30
2022-09-02T02:33:36.437Z,0.30
2022-09-02T02:36:43.643Z,0.30
2022-09-02T02:39:51.508Z,0.30
2022-09-02T02:42:57.216Z,0.40
2022-09-02T02:46:03.236Z,0.40
2022-09-02T02:49:08.904Z,0.55
2022-09-02T02:52:14.658Z,0.38
2022-09-02T02:55:24.064Z,0.20
2022-09-02T03:01:35.685Z,0.20
2022-09-02T03:04:43.162Z,0.33
2022-09-02T03:07:48.883Z,0.20
2022-09-02T03:10:58.915Z,0.30
2022-09-02T03:14:08.042Z,0.30
2022-09-02T03:17:13.363Z,0.28
2022-09-02T03:20:20.403Z,0.30
2022-09-02T03:23:31.024Z,0.40
2022-09-02T03:26:40.031Z,0.20
2022-09-02T03:29:45.274Z,0.30
2022-09-02T03:32:51.148Z,0.60
2022-09-02T03:35:56.264Z,0.30
2022-09-02T03:39:03.256Z,0.30
2022-09-02T03:42:19.412Z,0.55
2022-09-02T03:45:27.946Z,0.70
2022-09-02T03:48:33.055Z,0.40
2022-09-02T03:51:38.726Z,0.52
2022-09-02T03:54:43.792Z,0.45
2022-09-02T03:57:51.780Z,0.50
2022-09-02T04:00:57.500Z,0.40
2022-09-02T04:04:03.841Z,0.40
2022-09-02T04:07:09.799Z,0.30
2022-09-02T04:10:15.410Z,0.70
2022-09-02T04:13:23.626Z,1.58
2022-09-02T04:16:29.337Z,0.50
2022-09-02T04:19:40.736Z,0.30
2022-09-02T04:22:45.792Z,0.50
2022-09-02T04:25:51.265Z,0.52
2022-09-02T04:28:59.390Z,0.40
2022-09-02T04:32:06.519Z,0.50
2022-09-02T04:35:12.645Z,0.45
2022-09-02T04:38:19.082Z,0.50
2022-09-02T04:41:26.790Z,0.50
2022-09-02T04:44:37.524Z,0.40
2022-09-02T04:47:42.798Z,0.47
2022-09-02T04:50:52.815Z,0.35
2022-09-02T04:53:58.613Z,0.40
2022-09-02T04:57:03.882Z,0.40
2022-09-02T05:00:13.735Z,0.52
2022-09-02T05:03:20.403Z,0.70
2022-09-02T05:06:27.623Z,0.50
2022-09-02T05:09:36.059Z,0.60
2022-09-02T05:12:43.918Z,0.50
2022-09-02T05:15:53.312Z,0.40
2022-09-02T05:18:59.072Z,0.40
2022-09-02T05:22:12.981Z,1.05
2022-09-02T05:25:21.180Z,0.50
2022-09-02T05:28:27.607Z,0.47
2022-09-02T05:31:35.837Z,1.13
2022-09-02T05:34:41.217Z,0.43
2022-09-02T05:37:46.650Z,0.30
2022-09-02T05:40:52.903Z,0.30
2022-09-02T05:44:03.598Z,0.60
2022-09-02T05:47:13.510Z,0.85
2022-09-02T05:50:20.851Z,0.70
2022-09-02T05:53:27.178Z,0.40
2022-09-02T05:56:32.831Z,0.47
2022-09-02T05:59:42.679Z,0.50
2022-09-02T06:02:53.878Z,0.40
2022-09-02T06:06:06.765Z,0.30
2022-09-02T06:09:16.014Z,0.40
2022-09-02T06:12:22.040Z,0.40
2022-09-02T06:15:31.108Z,0.40
2022-09-02T06:18:41.655Z,0.43
2022-09-02T06:21:47.926Z,0.50
2022-09-02T06:24:53.569Z,0.50
2022-09-02T06:28:06.920Z,0.40
2022-09-02T06:31:17.148Z,0.50
2022-09-02T06:34:27.465Z,0.35
2022-09-02T06:37:34.358Z,0.30
2022-09-02T06:40:39.821Z,0.50
2022-09-02T06:43:45.583Z,1.27
2022-09-02T06:46:58.093Z,0.40
2022-09-02T06:50:07.219Z,0.60
2022-09-02T06:53:12.764Z,0.85
2022-09-02T06:56:18.359Z,0.50
2022-09-02T06:59:24.168Z,0.60
2022-09-02T07:02:32.425Z,0.60
2022-09-02T07:05:38.350Z,0.70
2022-09-02T07:08:45.178Z,0.63
2022-09-02T07:11:51.530Z,0.60
2022-09-02T07:14:58.619Z,0.57
2022-09-02T07:18:11.701Z,0.52
2022-09-02T07:21:19.551Z,0.30
2022-09-02T07:27:30.296Z,0.38
2022-09-02T07:30:36.316Z,0.60
2022-09-02T07:33:50.042Z,0.60
2022-09-02T07:37:03.255Z,0.40
2022-09-02T07:40:11.838Z,0.70
2022-09-02T07:43:17.475Z,0.50
2022-09-02T07:46:23.359Z,0.45
2022-09-02T07:49:29.005Z,0.38
2022-09-02T07:52:37.207Z,0.47
2022-09-02T07:55:42.291Z,0.65
2022-09-02T07:58:48.750Z,0.50
2022-09-02T08:01:54.223Z,0.70
2022-09-02T08:05:00.941Z,0.40
2022-09-02T08:08:09.168Z,0.47
2022-09-02T08:11:14.188Z,0.65
2022-09-02T08:14:20.813Z,0.70
2022-09-02T08:17:26.840Z,0.77
2022-09-02T08:20:32.442Z,0.50
2022-09-02T08:23:41.003Z,0.60
2022-09-02T08:29:51.239Z,0.20
2022-09-02T08:32:56.442Z,0.70
2022-09-02T08:36:04.927Z,0.30
2022-09-02T08:42:20.733Z,0.30
2022-09-02T08:45:27.606Z,0.30
2022-09-02T08:48:36.320Z,0.40
2022-09-02T08:54:48.921Z,0.95
2022-09-02T08:57:57.668Z,0.67
2022-09-02T09:01:07.547Z,0.47
2022-09-02T09:04:19.691Z,0.60
2022-09-02T09:07:29.093Z,0.30
2022-09-02T09:10:38.394Z,0.50
2022-09-02T09:13:55.166Z,0.40
2022-09-02T09:17:01.557Z,0.45
2022-09-02T09:20:10.056Z,0.55
2022-09-02T09:23:22.339Z,0.35
2022-09-02T09:26:31.188Z,0.50
2022-09-02T09:29:39.126Z,0.47
2022-09-02T09:35:51.621Z,0.40
2022-09-02T09:38:56.927Z,0.30
2022-09-02T09:42:03.442Z,0.60
2022-09-02T09:45:22.178Z,0.60
2022-09-02T09:48:31.044Z,0.57
2022-09-02T09:51:49.660Z,0.43
2022-09-02T09:55:16.463Z,0.50
2022-09-02T09:58:33.277Z,0.43
2022-09-02T10:01:41.617Z,0.32
2022-09-02T10:04:46.871Z,0.50
2022-09-02T10:07:56.797Z,0.40
2022-09-02T10:11:04.399Z,0.40
2022-09-02T10:14:11.538Z,0.60
2022-09-02T10:17:30.102Z,0.50
2022-09-02T10:20:53.172Z,0.40
2022-09-02T10:24:14.178Z,0.40
2022-09-02T10:27:23.813Z,0.40
2022-09-02T10:30:30.037Z,0.30
2022-09-02T10:33:50.453Z,0.40
2022-09-02T10:37:10.835Z,0.30
2022-09-02T10:40:17.282Z,0.25
2022-09-02T10:43:29.639Z,0.43
2022-09-02T10:46:38.607Z,0.60
2022-09-02T10:49:59.494Z,0.40
2022-09-02T10:53:14.969Z,0.43
2022-09-02T10:56:22.338Z,0.32
2022-09-02T10:59:29.968Z,0.38
2022-09-02T11:02:38.478Z,0.37
2022-09-02T11:08:53.716Z,0.30
2022-09-02T11:12:02.950Z,0.45
2022-09-02T11:15:13.184Z,0.30
2022-09-02T11:18:21.754Z,0.32
2022-09-02T11:21:40.075Z,0.50
2022-09-02T11:24:52.690Z,0.50
2022-09-02T11:28:01.275Z,0.43
2022-09-02T11:31:09.757Z,0.50
2022-09-02T11:34:22.288Z,0.45
2022-09-02T11:37:32.079Z,0.40
2022-09-02T11:40:42.253Z,1.08
2022-09-02T11:43:49.470Z,0.60
2022-09-02T11:47:03.120Z,0.60
2022-09-02T11:50:14.739Z,1.02
2022-09-02T11:53:23.030Z,0.60
2022-09-02T11:56:32.426Z,0.40
2022-09-02T11:59:52.460Z,0.38
2022-09-02T12:03:11.879Z,0.50
2022-09-02T12:06:28.072Z,0.98
2022-09-02T12:09:45.513Z,2.10
2022-09-02T12:13:09.864Z,0.90
2022-09-02T12:16:30.014Z,0.80
2022-09-02T12:19:45.908Z,0.55
2022-09-02T12:22:52.610Z,0.70
2022-09-02T12:25:59.890Z,1.08
2022-09-02T12:29:33.518Z,0.90
2022-09-02T12:33:13.783Z,2.60
2022-09-02T12:36:34.045Z,1.55
2022-09-02T12:39:53.654Z,0.77
2022-09-02T12:43:00.963Z,1.05
2022-09-02T12:46:17.773Z,0.68
2022-09-02T12:49:31.893Z,1.00
2022-09-02T12:52:45.154Z,0.73
2022-09-02T12:55:56.674Z,0.70
2022-09-02T12:59:02.902Z,1.02
2022-09-02T13:02:25.651Z,0.80
2022-09-02T13:05:46.395Z,0.30
2022-09-02T13:09:04.124Z,0.50
2022-09-02T13:12:33.149Z,0.57
2022-09-02T13:16:02.098Z,0.40
2022-09-02T13:19:31.722Z,0.50
2022-09-02T13:22:54.642Z,0.60
2022-09-02T13:26:06.197Z,0.40
2022-09-02T13:29:39.638Z,0.60
2022-09-02T13:32:45.499Z,0.68
2022-09-02T13:35:57.347Z,0.70
2022-09-02T13:39:13.289Z,0.70
2022-09-02T13:42:20.886Z,0.88
2022-09-02T13:45:29.675Z,0.90
2022-09-02T13:48:35.714Z,0.60
2022-09-02T13:51:45.826Z,0.57
2022-09-02T13:54:52.338Z,0.55
2022-09-02T13:57:59.737Z,0.60
2022-09-02T14:01:20.809Z,0.40
2022-09-02T14:04:27.303Z,0.50
2022-09-02T14:07:38.505Z,0.50
2022-09-02T14:10:44.606Z,0.40
2022-09-02T14:13:51.274Z,0.50
2022-09-02T14:17:16.513Z,0.50
2022-09-02T14:20:22.685Z,0.35
2022-09-02T14:23:33.605Z,0.60
2022-09-02T14:26:40.300Z,1.33
2022-09-02T14:29:47.109Z,0.90
2022-09-02T14:32:52.334Z,1.27
2022-09-02T14:36:01.266Z,0.82
2022-09-02T14:39:17.129Z,0.85
2022-09-02T14:42:22.813Z,0.85
2022-09-02T14:45:29.572Z,0.70
2022-09-02T14:48:36.162Z,1.45
2022-09-02T14:51:42.601Z,0.80
2022-09-02T14:54:51.252Z,0.80
2022-09-02T15:01:02.624Z,0.80
2022-09-02T15:04:08.124Z,1.00
2022-09-02T15:07:13.463Z,0.80
2022-09-02T15:10:22.036Z,0.85
2022-09-02T15:16:32.076Z,0.50
2022-09-02T15:19:37.403Z,0.57
2022-09-02T15:22:43.565Z,1.30
2022-09-02T15:25:51.660Z,0.60
2022-09-02T15:28:56.860Z,0.65
2022-09-02T15:32:04.418Z,0.73
2022-09-02T15:35:10.993Z,0.75
2022-09-02T15:38:16.224Z,1.20
2022-09-02T15:41:25.570Z,0.90
2022-09-02T15:44:32.922Z,0.80
2022-09-02T15:47:38.325Z,0.80
2022-09-02T15:50:43.541Z,1.00
2022-09-02T15:53:56.692Z,0.57
2022-09-02T15:57:04.403Z,0.50
2022-09-02T16:00:10.773Z,0.60
2022-09-02T16:03:21.626Z,0.75
2022-09-02T16:06:27.225Z,0.60
2022-09-02T16:09:32.466Z,1.15
2022-09-02T16:12:40.204Z,0.75
2022-09-02T16:15:45.832Z,1.00
2022-09-02T16:18:52.763Z,0.65
2022-09-02T16:21:58.120Z,0.82
2022-09-02T16:25:03.318Z,0.88
2022-09-02T16:28:13.003Z,0.80
2022-09-02T16:31:20.282Z,0.70
2022-09-02T16:34:25.987Z,0.90
2022-09-02T16:37:31.053Z,0.90
2022-09-02T16:40:36.371Z,1.65
2022-09-02T16:43:44.021Z,1.20
2022-09-02T16:46:50.312Z,1.20
2022-09-02T16:49:55.536Z,0.90
2022-09-02T16:53:00.663Z,1.33
2022-09-02T16:56:06.394Z,1.52
2022-09-02T16:59:14.972Z,2.85
2022-09-02T17:05:25.008Z,1.85
2022-09-02T17:08:30.207Z,1.70
2022-09-02T17:11:37.777Z,1.55
2022-09-02T17:14:45.617Z,1.67
2022-09-02T17:17:51.032Z,1.83
2022-09-02T17:21:12.460Z,1.63
2022-09-02T17:24:18.737Z,2.22
2022-09-02T17:27:23.962Z,1.80
2022-09-02T17:30:31.784Z,1.67
2022-09-02T17:33:37.041Z,2.00
2022-09-02T17:36:44.364Z,1.80
2022-09-02T17:39:49.819Z,1.92
2022-09-02T17:42:52.579Z,1.52
2022-09-02T17:46:10.257Z,1.63
2022-09-02T17:49:17.618Z,1.50
2022-09-02T17:52:24.062Z,2.00
2022-09-02T17:55:29.368Z,1.63
2022-09-02T17:58:37.912Z,1.85
2022-09-02T18:01:53.360Z,1.67
2022-09-02T18:05:06.586Z,2.03
2022-09-02T18:08:14.805Z,2.00
2022-09-02T18:11:22.622Z,1.80
2022-09-02T18:14:36.027Z,1.70
2022-09-02T18:17:49.107Z,1.50
2022-09-02T18:20:57.682Z,3.75
2022-09-02T18:24:07.701Z,1.08
2022-09-02T18:27:17.381Z,1.35
2022-09-02T18:30:23.915Z,1.30
2022-09-02T18:33:38.740Z,1.40
2022-09-02T18:36:48.871Z,1.35
2022-09-02T18:40:04.190Z,1.58
2022-09-02T18:43:14.001Z,1.10
2022-09-02T18:46:20.716Z,1.13
2022-09-02T18:49:30.751Z,1.27
2022-09-02T18:52:36.255Z,1.90
2022-09-02T18:55:42.631Z,1.35
2022-09-02T18:58:50.065Z,1.15
2022-09-02T19:01:57.361Z,1.30
2022-09-02T19:05:07.393Z,1.40
2022-09-02T19:08:27.530Z,1.35
2022-09-02T19:11:35.374Z,1.85
2022-09-02T19:14:42.515Z,1.10
2022-09-02T19:17:49.762Z,1.35
2022-09-02T19:20:59.868Z,1.38
2022-09-02T19:24:05.434Z,1.40
2022-09-02T19:27:12.450Z,2.38
2022-09-02T19:30:18.939Z,1.40
2022-09-02T19:33:24.181Z,1.17
2022-09-02T19:36:33.264Z,1.35
2022-09-02T19:39:38.610Z,1.20
2022-09-02T19:42:43.990Z,1.10
2022-09-02T19:45:51.498Z,1.08
2022-09-02T19:48:56.954Z,1.50
2022-09-02T19:52:04.837Z,1.23
2022-09-02T19:55:10.898Z,1.33
2022-09-02T19:58:16.154Z,1.50
2022-09-02T20:01:21.376Z,1.15
2022-09-02T20:04:29.714Z,0.82
2022-09-02T20:07:37.845Z,1.20
2022-09-02T20:10:43.027Z,1.33
2022-09-02T20:13:49.486Z,1.00
2022-09-02T20:16:56.613Z,0.95
2022-09-02T20:20:03.386Z,1.25
2022-09-02T20:23:17.295Z,1.25
2022-09-02T20:26:30.161Z,1.23
2022-09-02T20:29:42.062Z,1.25
2022-09-02T20:32:52.728Z,1.30
2022-09-02T20:36:10.838Z,1.17
2022-09-02T20:39:41.465Z,1.25
2022-09-02T20:43:00.944Z,1.23
2022-09-02T20:46:13.597Z,1.10
2022-09-02T20:49:25.225Z,1.33
2022-09-02T20:52:35.751Z,1.13
2022-09-02T20:55:48.088Z,3.00
2022-09-02T20:58:57.794Z,1.17
2022-09-02T21:02:04.757Z,1.20
2022-09-02T21:05:14.516Z,1.17
2022-09-02T21:08:34.279Z,1.10
2022-09-02T21:11:46.377Z,1.33
2022-09-02T21:14:54.578Z,0.90
2022-09-02T21:18:02.242Z,1.48
2022-09-02T21:21:10.054Z,1.63
2022-09-02T21:24:18.684Z,1.30
2022-09-02T21:27:29.124Z,1.17
2022-09-02T21:30:36.827Z,1.30
2022-09-02T21:33:44.322Z,0.90
2022-09-02T21:36:49.417Z,1.10
2022-09-02T21:39:58.828Z,1.23
2022-09-02T21:43:15.654Z,1.00
2022-09-02T21:46:26.322Z,0.98
2022-09-02T21:49:37.108Z,1.05
2022-09-02T21:52:54.536Z,1.33
2022-09-02T21:56:02.865Z,1.08
2022-09-02T21:59:19.953Z,0.90
2022-09-02T22:02:31.383Z,2.80
2022-09-02T22:05:47.868Z,1.15
2022-09-02T22:08:59.111Z,1.02
2022-09-02T22:12:09.160Z,1.30
2022-09-02T22:15:21.325Z,1.10
2022-09-02T22:18:32.262Z,0.90
2022-09-02T22:21:48.531Z,1.17
2022-09-02T22:24:55.313Z,1.13
2022-09-02T22:28:05.342Z,1.40
2022-09-02T22:31:16.367Z,1.35
2022-09-02T22:34:23.919Z,1.17
2022-09-02T22:37:37.290Z,1.52
2022-09-02T22:40:43.927Z,1.80
2022-09-02T22:43:52.215Z,1.00
2022-09-02T22:47:15.289Z,0.85
2022-09-02T22:50:35.155Z,0.95
2022-09-02T22:53:40.351Z,0.90
2022-09-02T22:56:47.875Z,1.10
2022-09-02T23:00:01.266Z,1.10
2022-09-02T23:03:16.160Z,1.10
2022-09-02T23:06:25.286Z,4.88
2022-09-02T23:09:30.842Z,1.10
2022-09-02T23:12:39.014Z,1.02
2022-09-02T23:15:48.230Z,0.90
2022-09-02T23:19:04.223Z,1.02
2022-09-02T23:22:13.506Z,1.20
2022-09-02T23:25:34.977Z,1.10
2022-09-02T23:28:48.423Z,1.17
2022-09-02T23:32:08.407Z,1.10
2022-09-02T23:35:22.188Z,0.93
2022-09-02T23:38:44.407Z,1.02
2022-09-02T23:41:49.803Z,0.80
2022-09-02T23:44:56.441Z,1.58
2022-09-02T23:48:20.005Z,1.05
2022-09-02T23:51:34.818Z,1.10
2022-09-02T23:54:50.952Z,1.05
2022-09-02T23:58:03.406Z,1.00
